Data for 06/21/2007

Time Sea-Level Adjusted Pressure Absolute Pressure Temperature Relative Humidity Dew Point   
(mb) (inHg) (mb) (inHg) (C) (F) (%) (C) (F)
00:05 1022 30.18 851 25.13 13.9 57 83 11 51.8
00:10 1022 30.18 851 25.13 13.7 56.6 81 10.5 50.9
00:15 1022 30.18 851 25.13 13.9 57.1 80 10.5 50.9
00:20 1022 30.18 851 25.13 14 57.2 78 10.3 50.5
00:25 1022 30.18 851 25.13 13.8 56.9 79 10.3 50.5
00:30 1022 30.18 851 25.13 13.8 56.8 79 10.1 50.3
00:35 1022 30.18 851 25.13 13.9 57 78 10.2 50.3
00:40 1021 30.15 851 25.13 14.2 57.5 75 9.8 49.6
00:45 1021 30.15 850 25.1 14.6 58.2 73 9.8 49.7
00:50 1021 30.15 850 25.1 14.8 58.7 71 9.6 49.4
00:55 1020 30.12 850 25.1 15.1 59.1 70 9.6 49.3
01:00 1020 30.12 849 25.07 15 59 71 9.8 49.7
01:05 1020 30.12 849 25.07 14.8 58.6 72 9.9 49.7
01:10 1020 30.12 849 25.07 14.8 58.7 69 9.3 48.7
01:15 1020 30.12 849 25.07 15 59.1 70 9.6 49.2
01:20 1020 30.12 850 25.1 14.9 58.9 69 9.4 48.9
01:25 1020 30.12 849 25.07 15.2 59.3 66 8.9 48.1
01:30 1020 30.12 849 25.07 15.8 60.5 60 8.1 46.6
01:35 1020 30.12 849 25.07 16.8 62.3 55 7.7 45.9
01:40 1020 30.12 849 25.07 17 62.7 56 8.2 46.8
01:45 1020 30.12 849 25.07 17 62.5 56 8.3 46.9
01:50 1020 30.12 849 25.07 17 62.5 56 8.3 46.9
01:55 1020 30.12 849 25.07 17 62.7 55 8.2 46.7
02:00 1020 30.12 849 25.07 17.1 62.7 55 8.1 46.6
02:05 1020 30.12 849 25.07 16.9 62.5 56 8.2 46.8
02:10 1020 30.12 850 25.1 16.7 62 58 8.4 47.2
02:15 1020 30.12 850 25.1 16.4 61.5 58 8.1 46.6
02:20 1020 30.12 850 25.1 16.4 61.4 58 8.2 46.7
02:25 1020 30.12 850 25.1 16.3 61.4 58 8 46.5
02:30 1020 30.12 850 25.1 16.2 61.2 59 8.2 46.8
02:35 1020 30.12 850 25.1 16 60.9 59 8 46.5
02:40 1020 30.12 850 25.1 16.1 60.9 59 8.1 46.6
02:45 1021 30.15 850 25.1 16.1 60.9 58 7.9 46.1
02:50 1021 30.15 850 25.1 16.2 61.2 59 8.4 47.1
02:55 1021 30.15 850 25.1 15.8 60.4 66 9.4 49
03:00 1021 30.15 850 25.1 15.1 59.1 71 9.8 49.7
03:05 1021 30.15 850 25.1 14.5 58.2 73 9.9 49.8
03:10 1021 30.15 850 25.1 14.2 57.5 75 9.9 49.8
03:15 1021 30.15 850 25.1 13.9 56.9 77 10 49.9
03:20 1021 30.15 850 25.1 13.7 56.7 78 9.9 49.9
03:25 1021 30.15 851 25.13 13.7 56.6 78 9.9 49.9
03:30 1021 30.15 850 25.1 13.5 56.3 79 10 50
03:35 1021 30.15 851 25.13 13.3 55.9 81 10.1 50.1
03:40 1021 30.15 851 25.13 13.3 55.9 80 10 49.9
03:45 1021 30.15 851 25.13 13.2 55.7 80 9.8 49.7
03:50 1021 30.15 850 25.1 13 55.4 81 9.9 49.7
03:55 1021 30.15 850 25.1 12.8 55 82 9.8 49.6
04:00 1021 30.15 851 25.13 12.5 54.4 83 9.6 49.3
04:05 1021 30.15 851 25.13 12.3 54.2 82 9.4 48.9
04:10 1021 30.15 851 25.13 12.3 54.2 81 9.2 48.6
04:15 1021 30.15 851 25.13 12.3 54.1 81 9.1 48.4
04:20 1021 30.15 851 25.13 12.4 54.4 80 9.1 48.4
04:25 1021 30.15 851 25.13 12.6 54.6 80 9.2 48.6
04:30 1022 30.18 851 25.13 12.7 54.9 80 9.3 48.8
04:35 1022 30.18 851 25.13 12.9 55.2 78 9.1 48.4
04:40 1022 30.18 851 25.13 12.3 54.2 82 9.4 48.8
04:45 1022 30.18 851 25.13 12.3 54.1 81 9.1 48.4
04:50 1022 30.18 851 25.13 12 53.7 83 9.2 48.6
04:55 1022 30.18 851 25.13 12 53.5 82 9.1 48.3
05:00 1022 30.18 851 25.13 11.8 53.3 83 9.1 48.4
05:05 1022 30.18 851 25.13 11.7 53 81 8.5 47.3
05:10 1022 30.18 851 25.13 11.6 52.9 81 8.5 47.2
05:15 1022 30.18 851 25.13 11.7 53 81 8.5 47.2
05:20 1022 30.18 851 25.13 11.7 53.1 78 8 46.4
05:25 1022 30.18 851 25.13 11.3 52.4 79 7.8 46
05:30 1022 30.18 851 25.13 11.1 52 80 7.9 46.2
05:35 1022 30.18 851 25.13 11.2 52.1 80 7.9 46.2
05:40 1022 30.18 851 25.13 11.1 51.9 78 7.4 45.2
05:45 1022 30.18 851 25.13 10.9 51.7 77 7.2 44.9
05:50 1022 30.18 851 25.13 10.7 51.2 78 7 44.5
05:55 1022 30.18 851 25.13 10.5 50.9 79 7.1 44.8
06:00 1022 30.18 851 25.13 10.3 50.5 82 7.3 45.2
06:05 1022 30.18 851 25.13 10 49.9 81 6.9 44.3
06:10 1022 30.18 851 25.13 10.5 50.8 79 6.9 44.5
06:15 1022 30.18 851 25.13 10.5 50.8 81 7.4 45.4
06:20 1022 30.18 851 25.13 10.9 51.6 79 7.4 45.4
06:25 1022 30.18 851 25.13 11.1 51.9 81 7.9 46.2
06:30 1022 30.18 851 25.13 11.2 52.2 80 7.8 46.1
06:35 1022 30.18 851 25.13 11.6 52.9 78 8 46.4
06:40 1022 30.18 851 25.13 11.8 53.2 78 8.2 46.7
06:45 1022 30.18 851 25.13 11.9 53.5 77 8.1 46.6
06:50 1022 30.18 851 25.13 12.3 54.1 76 8.1 46.7
06:55 1022 30.18 851 25.13 12.7 54.8 74 8.3 46.9
07:00 1022 30.18 851 25.13 12.9 55.1 75 8.5 47.3
07:05 1022 30.18 851 25.13 13.1 55.6 72 8.2 46.8
07:10 1022 30.18 851 25.13 13.3 56 70 8 46.4
07:15 1022 30.18 851 25.13 13.7 56.6 69 8.1 46.6
07:20 1022 30.18 851 25.13 14.2 57.6 68 8.4 47.2
07:25 1022 30.18 851 25.13 14.7 58.4 66 8.4 47.1
07:30 1022 30.18 851 25.13 15.3 59.6 62 8.1 46.5
07:35 1022 30.18 851 25.13 15.2 59.3 65 8.6 47.6
07:40 1022 30.18 851 25.13 15.4 59.6 66 9.1 48.4
07:45 1022 30.18 851 25.13 15.5 59.9 65 9 48.2
07:50 1022 30.18 851 25.13 15.4 59.8 67 9.3 48.8
07:55 1022 30.18 851 25.13 15.8 60.4 63 8.9 48.1
08:00 1022 30.18 851 25.13 15.8 60.5 65 9.2 48.6
08:05 1022 30.18 851 25.13 16.1 61 63 9.1 48.5
08:10 1022 30.18 851 25.13 16.7 62.1 62 9.5 49.1
08:15 1022 30.18 851 25.13 17.2 62.9 60 9.5 49
08:20 1022 30.18 851 25.13 17.4 63.3 60 9.6 49.3
08:25 1022 30.18 851 25.13 17.4 63.3 60 9.7 49.5
08:30 1022 30.18 851 25.13 17.8 64 58 9.4 48.9
08:35 1022 30.18 851 25.13 18.4 65.1 55 9.3 48.7
08:40 1022 30.18 851 25.13 18.8 65.8 51 8.5 47.3
08:45 1022 30.18 851 25.13 19.3 66.8 48 8.2 46.8
08:50 1022 30.18 851 25.13 19.2 66.5 50 8.7 47.7
08:55 1022 30.18 851 25.13 18.9 66 50 8.5 47.3
09:00 1022 30.18 851 25.13 19.5 67.2 48 8.5 47.2
09:05 1022 30.18 851 25.13 20.1 68.2 47 8.6 47.5
09:10 1022 30.18 851 25.13 19.9 67.9 48 8.6 47.5
09:15 1022 30.18 851 25.13 20.6 69 45 8.5 47.3
09:20 1022 30.18 851 25.13 21 69.7 43 8 46.4
09:25 1022 30.18 851 25.13 21 69.7 43 8.1 46.5
09:30 1022 30.18 851 25.13 21.3 70.3 44 8.5 47.4
09:35 1022 30.18 851 25.13 21.7 71.1 43 8.9 48.1
09:40 1022 30.18 851 25.13 22.2 71.9 44 9.4 48.9
09:45 1022 30.18 851 25.13 20.8 69.5 48 9.4 49
09:50 1022 30.18 851 25.13 21.1 70 44 8.7 47.6
09:55 1022 30.18 851 25.13 21.9 71.4 44 9.2 48.6
10:00 1022 30.18 851 25.13 22 71.6 43 9.1 48.3
10:05 1022 30.18 851 25.13 22 71.6 44 9.3 48.7
10:10 1022 30.18 851 25.13 21.8 71.3 45 9.4 48.9
10:15 1022 30.18 851 25.13 22.2 71.9 44 9.4 48.9
10:20 1022 30.18 851 25.13 22.7 72.9 40 8.8 47.8
10:25 1022 30.18 851 25.13 23.1 73.6 41 9.3 48.8
10:30 1022 30.18 851 25.13 23.4 74 39 8.9 48.1
10:35 1022 30.18 851 25.13 23 73.5 40 8.9 48.1
10:40 1022 30.18 851 25.13 23.2 73.7 42 9.8 49.7
10:45 1022 30.18 851 25.13 22.5 72.4 45 10.2 50.4
10:50 1022 30.18 851 25.13 22.8 73 40 8.6 47.5
10:55 1022 30.18 851 25.13 23.6 74.4 41 9.9 49.8
11:00 1022 30.18 851 25.13 23.8 74.9 40 9.5 49
11:05 1022 30.18 851 25.13 24 75.3 41 10.1 50.1
11:10 1022 30.18 851 25.13 24.2 75.5 40 9.9 49.7
11:15 1022 30.18 851 25.13 24.2 75.6 38 9.2 48.6
11:20 1022 30.18 851 25.13 24.6 76.4 37 9.1 48.4
11:25 1022 30.18 851 25.13 24.9 76.8 36 9.1 48.3
11:30 1022 30.18 851 25.13 23.9 75 40 9.7 49.4
11:35 1022 30.18 851 25.13 23.3 73.9 41 9.4 48.9
11:40 1022 30.18 851 25.13 23.2 73.7 42 9.8 49.6
11:45 1022 30.18 851 25.13 23.6 74.5 40 9.5 49
11:50 1022 30.18 851 25.13 24.1 75.3 41 10.2 50.3
11:55 1022 30.18 851 25.13 24.8 76.7 36 8.9 48
12:00 1022 30.18 851 25.13 24.8 76.6 38 9.8 49.6
12:05 1022 30.18 851 25.13 24.4 75.9 37 9 48.2
12:10 1022 30.18 851 25.13 24.8 76.6 36 8.8 47.9
12:15 1022 30.18 851 25.13 24.4 76 34 7.8 46
12:20 1022 30.18 851 25.13 25.4 77.7 32 7.9 46.3
12:25 1022 30.18 851 25.13 26.1 79 31 7.9 46.1
12:30 1022 30.18 851 25.13 25.5 77.8 33 8.3 46.9
12:35 1022 30.18 851 25.13 25.8 78.4 31 7.6 45.6
12:40 1022 30.18 851 25.13 25.7 78.3 32 8.2 46.7
12:45 1021 30.15 851 25.13 25.3 77.6 32 7.5 45.5
12:50 1021 30.15 851 25.13 25.3 77.5 31 7.2 45
12:55 1021 30.15 851 25.13 26.3 79.3 31 7.9 46.2
13:00 1021 30.15 850 25.1 27.2 80.9 30 8.1 46.6
13:05 1021 30.15 850 25.1 27.5 81.5 29 8 46.5
13:10 1021 30.15 850 25.1 26.7 80 30 8 46.3
13:15 1021 30.15 850 25.1 26.6 79.8 30 7.8 46
13:20 1021 30.15 850 25.1 26.8 80.2 30 8 46.5
13:25 1021 30.15 850 25.1 26.6 79.8 30 7.8 46
13:30 1021 30.15 850 25.1 26.6 79.8 31 8.5 47.3
13:35 1021 30.15 850 25.1 26.7 80.1 30 8 46.3
13:40 1021 30.15 850 25.1 26.3 79.3 32 8.4 47.1
13:45 1021 30.15 850 25.1 26.2 79.1 29 7.2 45
13:50 1021 30.15 850 25.1 26.2 79.2 31 7.9 46.1
13:55 1021 30.15 850 25.1 27.4 81.2 27 7 44.6
14:00 1021 30.15 850 25.1 28.3 83 27 7.6 45.7
14:05 1021 30.15 850 25.1 28.9 83.9 26 7.6 45.7
14:10 1021 30.15 850 25.1 29 84.2 24 6.8 44.2
14:15 1020 30.12 850 25.1 29.3 84.7 23 6.4 43.4
14:20 1020 30.12 850 25.1 29.1 84.4 24 6.7 44.1
14:25 1020 30.12 850 25.1 29 84.3 22 5.7 42.3
14:30 1020 30.12 850 25.1 28.7 83.6 18 2.7 36.8
14:35 1020 30.12 850 25.1 27.6 81.7 19 2.4 36.3
14:40 1020 30.12 850 25.1 28.2 82.8 21 4.1 39.3
14:45 1020 30.12 849 25.07 28.3 83 19 3.1 37.6
14:50 1020 30.12 849 25.07 28.6 83.6 19 2.9 37.3
14:55 1020 30.12 849 25.07 29.3 84.8 21 4.9 40.8
15:00 1020 30.12 849 25.07 29.5 85 20 4.2 39.6
15:05 1020 30.12 849 25.07 29 84.2 19 3.6 38.5
15:10 1020 30.12 849 25.07 29.9 85.8 19 3.9 39
15:15 1020 30.12 849 25.07 29.7 85.5 20 4.7 40.5
15:20 1020 30.12 849 25.07 30 85.9 16 2.2 35.9
15:25 1020 30.12 849 25.07 30.1 86.2 16 1.7 35.1
15:30 1020 30.12 849 25.07 30.5 86.8 17 3.2 37.8
15:35 1020 30.12 849 25.07 30.3 86.5 16 2.1 35.8
15:40 1020 30.12 849 25.07 30.4 86.8 16 1.9 35.4
15:45 1020 30.12 849 25.07 30.4 86.7 16 2.2 35.9
15:50 1020 30.12 849 25.07 29.3 84.7 18 3.1 37.6
15:55 1020 30.12 849 25.07 29.9 85.7 18 3.1 37.6
16:00 1020 30.12 849 25.07 30 86.1 16 2.1 35.9
16:05 1019 30.09 849 25.07 29.8 85.6 18 3.3 37.9
16:10 1019 30.09 849 25.07 30.3 86.5 16 2.2 36
16:15 1019 30.09 849 25.07 30.4 86.6 18 3.8 38.9
16:20 1019 30.09 849 25.07 30.1 86.2 16 2 35.6
16:25 1019 30.09 849 25.07 30.2 86.3 17 2.9 37.2
16:30 1019 30.09 848 25.04 30.4 86.6 19 4.2 39.6
16:35 1019 30.09 848 25.04 30.5 87 16 2.3 36.1
16:40 1019 30.09 848 25.04 30.3 86.6 16 2 35.6
16:45 1019 30.09 848 25.04 30.2 86.3 16 2.1 35.8
16:50 1019 30.09 848 25.04 30.9 87.6 16 2.3 36.2
16:55 1019 30.09 848 25.04 30.9 87.6 16 2.7 36.8
17:00 1019 30.09 848 25.04 30.5 86.9 17 2.7 36.8
17:05 1019 30.09 848 25.04 30.2 86.4 18 3.4 38.1
17:10 1019 30.09 848 25.04 30.4 86.7 17 3.4 38
17:15 1019 30.09 848 25.04 30.6 87 17 2.8 37
17:20 1019 30.09 848 25.04 30.4 86.8 17 2.7 36.9
17:25 1019 30.09 848 25.04 29.9 85.9 18 3.3 37.9
17:30 1019 30.09 848 25.04 29.7 85.5 17 2.2 36
17:35 1019 30.09 848 25.04 29.6 85.3 17 2.6 36.7
17:40 1019 30.09 848 25.04 29.9 85.7 18 3 37.4
17:45 1019 30.09 848 25.04 30.6 87 16 2.4 36.3
17:50 1019 30.09 848 25.04 30 86 18 3.1 37.6
17:55 1019 30.09 848 25.04 30.6 87 16 1.9 35.5
18:00 1019 30.09 848 25.04 30.9 87.6 16 2.9 37.2
18:05 1019 30.09 848 25.04 30.3 86.6 15 1.6 34.8
18:10 1019 30.09 848 25.04 30.5 86.9 16 1.9 35.4
18:15 1018 30.06 848 25.04 30.5 87 16 2.3 36.2
18:20 1018 30.06 848 25.04 29.4 84.9 19 3.4 38.1
18:25 1018 30.06 848 25.04 29.1 84.4 19 3.1 37.7
18:30 1018 30.06 848 25.04 29.1 84.3 19 3.5 38.3
18:35 1018 30.06 848 25.04 28.8 83.9 19 3.3 38
18:40 1018 30.06 848 25.04 29 84.1 22 5.7 42.2
18:45 1018 30.06 848 25.04 28.7 83.7 21 4.2 39.6
18:50 1018 30.06 848 25.04 28.4 83.2 21 4.3 39.8
18:55 1018 30.06 848 25.04 28.3 82.9 21 4.3 39.7
19:00 1018 30.06 848 25.04 28.4 83 22 5.1 41.1
19:05 1018 30.06 848 25.04 28.1 82.6 22 4.9 40.8
19:10 1018 30.06 848 25.04 28 82.4 23 5 40.9
19:15 1018 30.06 848 25.04 28 82.5 22 4.7 40.5
19:20 1018 30.06 848 25.04 28.1 82.5 24 5.8 42.4
19:25 1018 30.06 847 25.01 28.1 82.6 23 5.6 42
19:30 1018 30.06 847 25.01 28.1 82.6 24 5.8 42.5
19:35 1018 30.06 847 25.01 27.8 82.1 24 5.6 42.1
19:40 1018 30.06 847 25.01 27.7 81.9 25 6.2 43.1
19:45 1018 30.06 847 25.01 27.6 81.7 25 5.8 42.5
19:50 1018 30.06 847 25.01 27.5 81.4 26 6.3 43.4
19:55 1018 30.06 847 25.01 27.3 81.1 26 6.5 43.6
20:00 1018 30.06 847 25.01 26.9 80.5 27 6.7 44
20:05 1018 30.06 847 25.01 26.7 80.1 26 6 42.9
20:10 1018 30.06 847 25.01 26.5 79.6 27 6.4 43.5
20:15 1018 30.06 847 25.01 26.2 79.1 29 6.8 44.2
20:20 1018 30.06 847 25.01 25.9 78.5 28 6.3 43.3
20:25 1018 30.06 847 25.01 25.6 78.1 29 6.7 44.1
20:30 1018 30.06 847 25.01 25.3 77.6 30 6.8 44.2
20:35 1018 30.06 847 25.01 25 77 32 7.5 45.6
20:40 1018 30.06 847 25.01 24.6 76.2 34 7.7 45.9
20:45 1018 30.06 847 25.01 24.2 75.6 33 7.3 45.1
20:50 1018 30.06 847 25.01 24 75.2 33 7 44.7
20:55 1018 30.06 847 25.01 23.9 75 33 6.8 44.2
21:00 1018 30.06 847 25.01 24 75.1 31 6.1 42.9
21:05 1018 30.06 847 25.01 24 75.2 31 6 42.8
21:10 1018 30.06 847 25.01 23.8 74.9 33 6.7 44
21:15 1018 30.06 847 25.01 23.4 74.1 35 7.3 45.2
21:20 1018 30.06 847 25.01 22.9 73.2 37 7.8 46
21:25 1018 30.06 847 25.01 22.5 72.5 37 7.2 45
21:30 1018 30.06 847 25.01 22.3 72.1 37 7.2 44.9
21:35 1018 30.06 847 25.01 22.2 71.9 37 6.8 44.2
21:40 1018 30.06 847 25.01 22.2 71.9 35 6.2 43.2
21:45 1018 30.06 848 25.04 22.3 72.1 36 6.6 43.9
21:50 1019 30.09 848 25.04 22.6 72.7 37 7.3 45.1
21:55 1019 30.09 848 25.04 22.7 72.8 37 7.5 45.6
22:00 1019 30.09 848 25.04 22.8 73 38 7.8 46
22:05 1019 30.09 848 25.04 22.6 72.7 40 8.4 47.1
22:10 1019 30.09 848 25.04 22.1 71.8 42 8.7 47.7
22:15 1019 30.09 848 25.04 21.8 71.2 41 8.1 46.5
22:20 1019 30.09 848 25.04 21.7 71 40 7.5 45.5
22:25 1019 30.09 848 25.04 21.6 71 42 8.3 46.9
22:30 1019 30.09 848 25.04 20.4 68.7 49 9.6 49.3
22:35 1019 30.09 848 25.04 19.7 67.5 49 8.9 48
22:40 1019 30.09 848 25.04 20.4 68.7 42 7.2 45
22:45 1019 30.09 849 25.07 21.2 70.1 42 8 46.5
22:50 1020 30.12 849 25.07 20.7 69.3 45 8.5 47.2
22:55 1020 30.12 849 25.07 20.5 68.8 44 7.8 46.1
23:00 1019 30.09 849 25.07 20.6 69 42 7.3 45.2
23:05 1019 30.09 848 25.04 20.9 69.6 40 6.9 44.4
23:10 1019 30.09 849 25.07 21.2 70.1 38 6.3 43.4
23:15 1019 30.09 849 25.07 22.1 71.7 33 5.4 41.7
23:20 1020 30.12 849 25.07 22.7 72.9 34 6.1 43
23:25 1020 30.12 849 25.07 22.3 72.2 37 7.1 44.8
23:30 1020 30.12 849 25.07 21.9 71.4 38 7.1 44.8
23:35 1020 30.12 849 25.07 21.6 71 39 7.3 45.2
23:40 1020 30.12 849 25.07 21.4 70.6 39 7.1 44.7
23:45 1019 30.09 849 25.07 21.1 70 42 7.7 45.8
23:50 1019 30.09 849 25.07 20.7 69.3 43 8 46.3
23:55 1019 30.09 849 25.07 20 68 46 8.1 46.5
24:00 1019 30.09 849 25.07 19.7 67.4 47 8.1 46.5